sensor_id;sensor_type;location;lat;lon;timestamp;pressure;altitude;pressure_sealevel;temperature;humidity
60897;BME280;46749;32.932;-117.130;2023-04-23T00:01:46;100978.31;;;18.93;54.05
60897;BME280;46749;32.932;-117.130;2023-04-23T00:04:14;100980.06;;;18.94;53.94
60897;BME280;46749;32.932;-117.130;2023-04-23T00:06:45;100968.66;;;18.95;53.85
60897;BME280;46749;32.932;-117.130;2023-04-23T00:09:14;100970.41;;;18.95;53.88
60897;BME280;46749;32.932;-117.130;2023-04-23T00:11:41;100957.25;;;18.95;54.07
60897;BME280;46749;32.932;-117.130;2023-04-23T00:14:08;100958.13;;;18.94;53.95
60897;BME280;46749;32.932;-117.130;2023-04-23T00:16:34;100966.03;;;18.94;53.85
60897;BME280;46749;32.932;-117.130;2023-04-23T00:19:01;100964.28;;;18.94;54.02
60897;BME280;46749;32.932;-117.130;2023-04-23T00:21:27;100958.13;;;18.94;54.00
60897;BME280;46749;32.932;-117.130;2023-04-23T00:23:53;100959.88;;;18.95;54.26
60897;BME280;46749;32.932;-117.130;2023-04-23T00:26:20;100950.25;;;18.94;54.08
60897;BME280;46749;32.932;-117.130;2023-04-23T00:28:46;100953.75;;;18.96;53.67
60897;BME280;46749;32.932;-117.130;2023-04-23T00:31:13;100949.38;;;18.96;54.01
60897;BME280;46749;32.932;-117.130;2023-04-23T00:33:39;100952.88;;;18.95;53.77
60897;BME280;46749;32.932;-117.130;2023-04-23T00:36:05;100946.72;;;18.96;53.92
60897;BME280;46749;32.932;-117.130;2023-04-23T00:38:32;100949.38;;;18.96;53.91
60897;BME280;46749;32.932;-117.130;2023-04-23T00:40:58;100948.47;;;18.97;54.12
60897;BME280;46749;32.932;-117.130;2023-04-23T00:43:25;100947.59;;;18.97;53.86
60897;BME280;46749;32.932;-117.130;2023-04-23T00:45:51;100944.09;;;18.98;53.90
60897;BME280;46749;32.932;-117.130;2023-04-23T00:48:18;100937.97;;;18.97;54.13
60897;BME280;46749;32.932;-117.130;2023-04-23T00:50:45;100936.19;;;18.98;53.89
60897;BME280;46749;32.932;-117.130;2023-04-23T00:53:11;100938.00;;;18.99;53.82
60897;BME280;46749;32.932;-117.130;2023-04-23T00:55:38;100927.47;;;18.99;54.08
60897;BME280;46749;32.932;-117.130;2023-04-23T00:58:05;100923.06;;;18.99;53.83
60897;BME280;46749;32.932;-117.130;2023-04-23T01:00:34;100928.34;;;18.99;54.13
60897;BME280;46749;32.932;-117.130;2023-04-23T01:03:04;100923.06;;;18.99;53.79
60897;BME280;46749;32.932;-117.130;2023-04-23T01:05:31;100924.84;;;19.00;53.88
60897;BME280;46749;32.932;-117.130;2023-04-23T01:07:57;100922.19;;;19.00;53.83
60897;BME280;46749;32.932;-117.130;2023-04-23T01:10:23;100922.19;;;19.00;53.75
60897;BME280;46749;32.932;-117.130;2023-04-23T01:12:50;100913.41;;;19.01;53.82
60897;BME280;46749;32.932;-117.130;2023-04-23T01:15:17;100916.06;;;19.01;53.71
60897;BME280;46749;32.932;-117.130;2023-04-23T01:17:43;100915.19;;;19.02;54.12
60897;BME280;46749;32.932;-117.130;2023-04-23T01:20:10;100915.19;;;19.02;53.74
60897;BME280;46749;32.932;-117.130;2023-04-23T01:22:37;100917.81;;;19.02;54.07
60897;BME280;46749;32.932;-117.130;2023-04-23T01:25:03;100917.81;;;19.02;54.09
60897;BME280;46749;32.932;-117.130;2023-04-23T01:27:31;100916.06;;;19.03;53.96
60897;BME280;46749;32.932;-117.130;2023-04-23T01:30:02;100920.44;;;19.02;54.04
60897;BME280;46749;32.932;-117.130;2023-04-23T01:32:30;100914.31;;;19.03;53.84
60897;BME280;46749;32.932;-117.130;2023-04-23T01:34:57;100914.31;;;19.03;54.05
60897;BME280;46749;32.932;-117.130;2023-04-23T01:37:24;100915.19;;;19.04;53.96
60897;BME280;46749;32.932;-117.130;2023-04-23T01:39:51;100917.81;;;19.04;53.93
60897;BME280;46749;32.932;-117.130;2023-04-23T01:42:17;100916.97;;;19.05;53.81
60897;BME280;46749;32.932;-117.130;2023-04-23T01:44:44;100907.31;;;19.05;54.11
60897;BME280;46749;32.932;-117.130;2023-04-23T01:47:10;100903.81;;;19.06;53.71
60897;BME280;46749;32.932;-117.130;2023-04-23T01:49:37;100895.91;;;19.06;53.77
60897;BME280;46749;32.932;-117.130;2023-04-23T01:52:03;100911.69;;;19.06;53.82
60897;BME280;46749;32.932;-117.130;2023-04-23T01:54:29;100921.34;;;19.07;53.70
60897;BME280;46749;32.932;-117.130;2023-04-23T01:56:56;100910.81;;;19.07;53.96
60897;BME280;46749;32.932;-117.130;2023-04-23T01:59:23;100916.97;;;19.08;53.96
60897;BME280;46749;32.932;-117.130;2023-04-23T02:01:50;100919.59;;;19.08;53.95
60897;BME280;46749;32.932;-117.130;2023-04-23T02:04:16;100921.34;;;19.09;54.24
60897;BME280;46749;32.932;-117.130;2023-04-23T02:06:45;100920.47;;;19.08;53.99
60897;BME280;46749;32.932;-117.130;2023-04-23T02:09:12;100922.22;;;19.09;54.10
60897;BME280;46749;32.932;-117.130;2023-04-23T02:11:38;100923.97;;;19.09;53.89
60897;BME280;46749;32.932;-117.130;2023-04-23T02:14:06;100927.50;;;19.09;53.97
60897;BME280;46749;32.932;-117.130;2023-04-23T02:16:32;100915.22;;;19.08;54.07
60897;BME280;46749;32.932;-117.130;2023-04-23T02:18:59;100924.84;;;19.09;53.87
60897;BME280;46749;32.932;-117.130;2023-04-23T02:21:26;100921.34;;;19.10;53.79
60897;BME280;46749;32.932;-117.130;2023-04-23T02:23:53;100926.63;;;19.10;53.97
60897;BME280;46749;32.932;-117.130;2023-04-23T02:26:19;100926.63;;;19.10;53.85
60897;BME280;46749;32.932;-117.130;2023-04-23T02:28:47;100934.50;;;19.10;53.82
60897;BME280;46749;32.932;-117.130;2023-04-23T02:31:13;100923.97;;;19.10;53.89
60897;BME280;46749;32.932;-117.130;2023-04-23T02:33:41;100925.72;;;19.10;54.27
60897;BME280;46749;32.932;-117.130;2023-04-23T02:36:07;100930.16;;;19.11;54.23
60897;BME280;46749;32.932;-117.130;2023-04-23T02:38:36;100929.25;;;19.10;54.26
60897;BME280;46749;32.932;-117.130;2023-04-23T02:41:26;100924.84;;;19.09;54.37
60897;BME280;46749;32.932;-117.130;2023-04-23T02:43:52;100928.41;;;19.11;54.14
60897;BME280;46749;32.932;-117.130;2023-04-23T02:46:18;100925.78;;;19.11;54.11
60897;BME280;46749;32.932;-117.130;2023-04-23T02:48:44;100926.63;;;19.10;53.96
60897;BME280;46749;32.932;-117.130;2023-04-23T02:51:12;100933.66;;;19.11;53.95
60897;BME280;46749;32.932;-117.130;2023-04-23T02:53:39;100935.41;;;19.11;53.88
60897;BME280;46749;32.932;-117.130;2023-04-23T02:56:06;100931.03;;;19.11;53.95
60897;BME280;46749;32.932;-117.130;2023-04-23T02:58:32;100928.41;;;19.11;54.38
60897;BME280;46749;32.932;-117.130;2023-04-23T03:00:59;100934.53;;;19.12;54.44
60897;BME280;46749;32.932;-117.130;2023-04-23T03:03:27;100942.44;;;19.12;54.03
60897;BME280;46749;32.932;-117.130;2023-04-23T03:05:57;100952.97;;;19.12;54.00
60897;BME280;46749;32.932;-117.130;2023-04-23T03:08:23;100945.06;;;19.12;54.20
60897;BME280;46749;32.932;-117.130;2023-04-23T03:10:50;100952.97;;;19.13;54.01
60897;BME280;46749;32.932;-117.130;2023-04-23T03:13:16;100961.75;;;19.12;53.95
60897;BME280;46749;32.932;-117.130;2023-04-23T03:15:43;100957.34;;;19.11;54.37
60897;BME280;46749;32.932;-117.130;2023-04-23T03:18:09;100947.66;;;19.10;54.17
60897;BME280;46749;32.932;-117.130;2023-04-23T03:20:35;100952.09;;;19.11;54.02
60897;BME280;46749;32.932;-117.130;2023-04-23T03:23:04;100945.91;;;19.09;54.03
60897;BME280;46749;32.932;-117.130;2023-04-23T03:25:32;100951.19;;;19.09;54.45
60897;BME280;46749;32.932;-117.130;2023-04-23T03:27:58;100952.06;;;19.08;54.08
60897;BME280;46749;32.932;-117.130;2023-04-23T03:30:26;100955.56;;;19.07;54.32
60897;BME280;46749;32.932;-117.130;2023-04-23T03:32:55;100958.19;;;19.07;54.08
60897;BME280;46749;32.932;-117.130;2023-04-23T03:35:22;100974.00;;;19.07;54.40
60897;BME280;46749;32.932;-117.130;2023-04-23T03:37:48;100964.34;;;19.06;54.17
60897;BME280;46749;32.932;-117.130;2023-04-23T03:40:15;100961.72;;;19.06;54.48
60897;BME280;46749;32.932;-117.130;2023-04-23T03:42:41;100969.63;;;19.06;54.51
60897;BME280;46749;32.932;-117.130;2023-04-23T03:45:08;100976.63;;;19.07;54.40
60897;BME280;46749;32.932;-117.130;2023-04-23T03:47:34;100970.50;;;19.07;54.41
60897;BME280;46749;32.932;-117.130;2023-04-23T03:50:01;100972.25;;;19.06;54.47
60897;BME280;46749;32.932;-117.130;2023-04-23T03:52:27;100977.50;;;19.06;54.30
60897;BME280;46749;32.932;-117.130;2023-04-23T03:54:54;100974.88;;;19.06;54.42
60897;BME280;46749;32.932;-117.130;2023-04-23T03:57:20;100979.25;;;19.06;54.57
60897;BME280;46749;32.932;-117.130;2023-04-23T03:59:46;100981.03;;;19.05;54.42
60897;BME280;46749;32.932;-117.130;2023-04-23T04:02:12;100972.25;;;19.05;54.27
60897;BME280;46749;32.932;-117.130;2023-04-23T04:04:39;100983.66;;;19.05;54.17
60897;BME280;46749;32.932;-117.130;2023-04-23T04:07:07;100986.28;;;19.05;54.07
60897;BME280;46749;32.932;-117.130;2023-04-23T04:09:37;100998.56;;;19.05;54.47
60897;BME280;46749;32.932;-117.130;2023-04-23T04:12:04;100990.66;;;19.05;54.41
60897;BME280;46749;32.932;-117.130;2023-04-23T04:14:31;100996.81;;;19.05;54.21
60897;BME280;46749;32.932;-117.130;2023-04-23T04:16:58;100990.66;;;19.05;54.52
60897;BME280;46749;32.932;-117.130;2023-04-23T04:19:24;100991.53;;;19.05;54.48
60897;BME280;46749;32.932;-117.130;2023-04-23T04:21:50;101005.56;;;19.04;54.39
60897;BME280;46749;32.932;-117.130;2023-04-23T04:24:17;101012.59;;;19.05;54.60
60897;BME280;46749;32.932;-117.130;2023-04-23T04:26:44;100995.94;;;19.05;54.19
60897;BME280;46749;32.932;-117.130;2023-04-23T04:29:10;101007.31;;;19.04;54.23
60897;BME280;46749;32.932;-117.130;2023-04-23T04:31:37;101001.19;;;19.05;54.35
60897;BME280;46749;32.932;-117.130;2023-04-23T04:34:03;101002.91;;;19.04;54.11
60897;BME280;46749;32.932;-117.130;2023-04-23T04:36:31;101004.69;;;19.04;54.56
60897;BME280;46749;32.932;-117.130;2023-04-23T04:38:59;101003.84;;;19.05;54.44
60897;BME280;46749;32.932;-117.130;2023-04-23T04:41:26;101004.69;;;19.04;54.16
60897;BME280;46749;32.932;-117.130;2023-04-23T04:43:53;101000.28;;;19.04;54.32
60897;BME280;46749;32.932;-117.130;2023-04-23T04:46:20;101001.19;;;19.05;54.36
60897;BME280;46749;32.932;-117.130;2023-04-23T04:48:47;101014.31;;;19.03;54.38
60897;BME280;46749;32.932;-117.130;2023-04-23T04:51:13;101005.56;;;19.04;54.42
60897;BME280;46749;32.932;-117.130;2023-04-23T04:53:39;101019.59;;;19.03;54.29
60897;BME280;46749;32.932;-117.130;2023-04-23T04:56:06;101017.84;;;19.02;54.08
60897;BME280;46749;32.932;-117.130;2023-04-23T04:58:33;101011.69;;;19.03;54.10
60897;BME280;46749;32.932;-117.130;2023-04-23T05:00:59;101016.09;;;19.03;54.44
60897;BME280;46749;32.932;-117.130;2023-04-23T05:03:26;100996.78;;;19.02;54.24
60897;BME280;46749;32.932;-117.130;2023-04-23T05:05:52;101010.81;;;19.01;54.21
60897;BME280;46749;32.932;-117.130;2023-04-23T05:08:24;101002.91;;;19.01;54.50
60897;BME280;46749;32.932;-117.130;2023-04-23T05:10:50;101005.56;;;19.01;54.50
60897;BME280;46749;32.932;-117.130;2023-04-23T05:13:18;101007.31;;;19.02;53.93
60897;BME280;46749;32.932;-117.130;2023-04-23T05:15:47;101009.94;;;19.01;54.36
60897;BME280;46749;32.932;-117.130;2023-04-23T05:18:14;101009.06;;;19.00;54.48
60897;BME280;46749;32.932;-117.130;2023-04-23T05:20:40;101010.81;;;19.01;54.12
60897;BME280;46749;32.932;-117.130;2023-04-23T05:23:07;101004.66;;;18.99;54.16
60897;BME280;46749;32.932;-117.130;2023-04-23T05:25:33;101011.69;;;18.99;54.44
60897;BME280;46749;32.932;-117.130;2023-04-23T05:28:00;101002.03;;;18.99;54.05
60897;BME280;46749;32.932;-117.130;2023-04-23T05:30:26;101001.16;;;18.99;54.27
60897;BME280;46749;32.932;-117.130;2023-04-23T05:32:52;100995.03;;;18.98;54.17
60897;BME280;46749;32.932;-117.130;2023-04-23T05:35:19;101008.19;;;18.98;54.33
60897;BME280;46749;32.932;-117.130;2023-04-23T05:37:45;101003.75;;;18.97;54.50
60897;BME280;46749;32.932;-117.130;2023-04-23T05:40:11;101006.38;;;18.97;54.10
60897;BME280;46749;32.932;-117.130;2023-04-23T05:42:38;100998.50;;;18.96;54.22
60897;BME280;46749;32.932;-117.130;2023-04-23T05:45:04;100996.75;;;18.96;54.56
60897;BME280;46749;32.932;-117.130;2023-04-23T05:47:31;100993.22;;;18.94;54.48
60897;BME280;46749;32.932;-117.130;2023-04-23T05:49:57;100992.34;;;18.95;54.20
60897;BME280;46749;32.932;-117.130;2023-04-23T05:52:23;100976.56;;;18.95;54.38
60897;BME280;46749;32.932;-117.130;2023-04-23T05:54:50;100988.84;;;18.95;54.16
60897;BME280;46749;32.932;-117.130;2023-04-23T05:57:17;100990.59;;;18.94;54.07
60897;BME280;46749;32.932;-117.130;2023-04-23T05:59:43;100973.06;;;18.95;54.43
60897;BME280;46749;32.932;-117.130;2023-04-23T06:02:09;100965.16;;;18.93;54.14
60897;BME280;46749;32.932;-117.130;2023-04-23T06:04:36;101002.00;;;18.93;54.28
60897;BME280;46749;32.932;-117.130;2023-04-23T06:07:03;100984.44;;;18.92;54.44
60897;BME280;46749;32.932;-117.130;2023-04-23T06:09:29;100955.50;;;18.92;53.98
60897;BME280;46749;32.932;-117.130;2023-04-23T06:11:55;100980.03;;;18.91;54.31
60897;BME280;46749;32.932;-117.130;2023-04-23T06:14:22;100959.84;;;18.90;54.16
60897;BME280;46749;32.932;-117.130;2023-04-23T06:16:48;100980.03;;;18.91;54.28
60897;BME280;46749;32.932;-117.130;2023-04-23T06:19:14;100964.25;;;18.90;54.55
60897;BME280;46749;32.932;-117.130;2023-04-23T06:21:40;100963.34;;;18.89;54.39
60897;BME280;46749;32.932;-117.130;2023-04-23T06:24:07;100960.72;;;18.89;54.36
60897;BME280;46749;32.932;-117.130;2023-04-23T06:26:33;100956.34;;;18.88;54.46
60897;BME280;46749;32.932;-117.130;2023-04-23T06:28:59;100961.59;;;18.88;54.55
60897;BME280;46749;32.932;-117.130;2023-04-23T06:31:27;100959.84;;;18.87;54.41
60897;BME280;46749;32.932;-117.130;2023-04-23T06:33:53;100966.88;;;18.86;54.14
60897;BME280;46749;32.932;-117.130;2023-04-23T06:36:19;100965.13;;;18.87;54.43
60897;BME280;46749;32.932;-117.130;2023-04-23T06:38:45;100962.44;;;18.85;54.28
60897;BME280;46749;32.932;-117.130;2023-04-23T06:41:12;100970.34;;;18.85;54.43
60897;BME280;46749;32.932;-117.130;2023-04-23T06:43:38;100980.00;;;18.85;54.31
60897;BME280;46749;32.932;-117.130;2023-04-23T06:46:04;100980.00;;;18.85;54.15
60897;BME280;46749;32.932;-117.130;2023-04-23T06:48:31;100974.72;;;18.83;54.16
60897;BME280;46749;32.932;-117.130;2023-04-23T06:50:58;100986.13;;;18.84;54.14
60897;BME280;46749;32.932;-117.130;2023-04-23T06:53:24;100958.06;;;18.83;54.53
60897;BME280;46749;32.932;-117.130;2023-04-23T06:55:51;100960.69;;;18.83;54.21
60897;BME280;46749;32.932;-117.130;2023-04-23T06:58:17;100970.34;;;18.81;54.52
60897;BME280;46749;32.932;-117.130;2023-04-23T07:00:43;100965.06;;;18.81;54.49
60897;BME280;46749;32.932;-117.130;2023-04-23T07:03:09;100959.81;;;18.81;54.54
60897;BME280;46749;32.932;-117.130;2023-04-23T07:05:36;100968.59;;;18.80;54.03
60897;BME280;46749;32.932;-117.130;2023-04-23T07:08:02;100972.97;;;18.79;54.30
60897;BME280;46749;32.932;-117.130;2023-04-23T07:10:28;100961.53;;;18.79;54.20
60897;BME280;46749;32.932;-117.130;2023-04-23T07:12:55;100951.88;;;18.78;54.40
60897;BME280;46749;32.932;-117.130;2023-04-23T07:15:21;100943.09;;;18.77;54.28
60897;BME280;46749;32.932;-117.130;2023-04-23T07:17:47;100952.75;;;18.77;54.59
60897;BME280;46749;32.932;-117.130;2023-04-23T07:20:13;100948.38;;;18.77;54.38
60897;BME280;46749;32.932;-117.130;2023-04-23T07:22:40;100970.28;;;18.76;54.35
60897;BME280;46749;32.932;-117.130;2023-04-23T07:25:07;100929.94;;;18.76;54.30
60897;BME280;46749;32.932;-117.130;2023-04-23T07:27:33;100948.38;;;18.74;54.34
60897;BME280;46749;32.932;-117.130;2023-04-23T07:30:00;100927.31;;;18.74;53.99
60897;BME280;46749;32.932;-117.130;2023-04-23T07:32:26;100942.22;;;18.74;54.13
60897;BME280;46749;32.932;-117.130;2023-04-23T07:34:55;100947.50;;;18.74;54.38
60897;BME280;46749;32.932;-117.130;2023-04-23T07:37:22;100935.19;;;18.73;54.26
60897;BME280;46749;32.932;-117.130;2023-04-23T07:39:48;100949.22;;;18.72;54.33
60897;BME280;46749;32.932;-117.130;2023-04-23T07:42:15;100947.44;;;18.71;54.25
60897;BME280;46749;32.932;-117.130;2023-04-23T07:44:41;100950.97;;;18.70;54.42
60897;BME280;46749;32.932;-117.130;2023-04-23T07:47:07;100940.44;;;18.70;54.63
60897;BME280;46749;32.932;-117.130;2023-04-23T07:49:33;100950.97;;;18.68;54.41
60897;BME280;46749;32.932;-117.130;2023-04-23T07:52:00;100958.84;;;18.68;54.35
60897;BME280;46749;32.932;-117.130;2023-04-23T07:54:26;100929.88;;;18.67;54.24
60897;BME280;46749;32.932;-117.130;2023-04-23T07:56:52;100935.13;;;18.67;54.52
60897;BME280;46749;32.932;-117.130;2023-04-23T07:59:18;100940.38;;;18.65;54.57
60897;BME280;46749;32.932;-117.130;2023-04-23T08:01:45;100948.25;;;18.65;54.52
60897;BME280;46749;32.932;-117.130;2023-04-23T08:04:11;100933.34;;;18.64;54.60
60897;BME280;46749;32.932;-117.130;2023-04-23T08:06:38;100940.34;;;18.64;54.52
60897;BME280;46749;32.932;-117.130;2023-04-23T08:09:04;100957.03;;;18.63;54.12
60897;BME280;46749;32.932;-117.130;2023-04-23T08:11:32;100954.38;;;18.63;54.27
60897;BME280;46749;32.932;-117.130;2023-04-23T08:13:58;100945.63;;;18.60;54.55
60897;BME280;46749;32.932;-117.130;2023-04-23T08:16:26;100963.13;;;18.60;54.73
60897;BME280;46749;32.932;-117.130;2023-04-23T08:18:53;100934.19;;;18.60;54.41
60897;BME280;46749;32.932;-117.130;2023-04-23T08:21:19;100944.69;;;18.58;54.24
60897;BME280;46749;32.932;-117.130;2023-04-23T08:23:46;100940.31;;;18.57;54.68
60897;BME280;46749;32.932;-117.130;2023-04-23T08:26:13;100939.44;;;18.57;54.46
60897;BME280;46749;32.932;-117.130;2023-04-23T08:28:39;100966.63;;;18.57;54.40
60897;BME280;46749;32.932;-117.130;2023-04-23T08:31:05;100926.28;;;18.55;54.42
60897;BME280;46749;32.932;-117.130;2023-04-23T08:33:31;100939.44;;;18.55;54.25
60897;BME280;46749;32.932;-117.130;2023-04-23T08:35:58;100925.41;;;18.55;54.60
60897;BME280;46749;32.932;-117.130;2023-04-23T08:38:24;100935.06;;;18.54;54.62
60897;BME280;46749;32.932;-117.130;2023-04-23T08:40:55;100932.41;;;18.54;54.50
60897;BME280;46749;32.932;-117.130;2023-04-23T08:43:30;100912.22;;;18.53;54.23
60897;BME280;46749;32.932;-117.130;2023-04-23T08:45:57;100956.94;;;18.52;54.36
60897;BME280;46749;32.932;-117.130;2023-04-23T08:48:28;100917.47;;;18.53;54.15
60897;BME280;46749;32.932;-117.130;2023-04-23T08:50:56;100941.16;;;18.52;54.42
60897;BME280;46749;32.932;-117.130;2023-04-23T08:53:25;100907.84;;;18.51;54.49
60897;BME280;46749;32.932;-117.130;2023-04-23T08:55:57;100915.72;;;18.49;54.23
60897;BME280;46749;32.932;-117.130;2023-04-23T08:58:24;100963.06;;;18.49;54.65
60897;BME280;46749;32.932;-117.130;2023-04-23T09:00:53;100899.94;;;18.49;54.33
60897;BME280;46749;32.932;-117.130;2023-04-23T09:03:21;100901.66;;;18.47;54.58
60897;BME280;46749;32.932;-117.130;2023-04-23T09:05:57;100906.03;;;18.47;54.43
60897;BME280;46749;32.932;-117.130;2023-04-23T09:08:24;100916.56;;;18.47;54.71
60897;BME280;46749;32.932;-117.130;2023-04-23T09:10:51;100919.19;;;18.45;54.34
60897;BME280;46749;32.932;-117.130;2023-04-23T09:13:20;100891.13;;;18.44;54.48
60897;BME280;46749;32.932;-117.130;2023-04-23T09:15:47;100912.19;;;18.46;54.56
60897;BME280;46749;32.932;-117.130;2023-04-23T09:18:14;100912.16;;;18.44;54.30
60897;BME280;46749;32.932;-117.130;2023-04-23T09:20:40;100921.81;;;18.42;54.38
60897;BME280;46749;32.932;-117.130;2023-04-23T09:23:07;100891.13;;;18.43;54.59
60897;BME280;46749;32.932;-117.130;2023-04-23T09:25:34;100913.03;;;18.42;54.66
60897;BME280;46749;32.932;-117.130;2023-04-23T09:28:01;100904.25;;;18.41;54.75
60897;BME280;46749;32.932;-117.130;2023-04-23T09:30:27;100889.34;;;18.40;54.88
60897;BME280;46749;32.932;-117.130;2023-04-23T09:32:54;100902.47;;;18.39;54.50
60897;BME280;46749;32.932;-117.130;2023-04-23T09:35:20;100898.97;;;18.40;54.63
60897;BME280;46749;32.932;-117.130;2023-04-23T09:37:49;100902.47;;;18.37;54.64
60897;BME280;46749;32.932;-117.130;2023-04-23T09:40:19;100895.47;;;18.38;54.22
60897;BME280;46749;32.932;-117.130;2023-04-23T09:42:50;100896.34;;;18.38;54.59
60897;BME280;46749;32.932;-117.130;2023-04-23T09:45:20;100894.59;;;18.37;54.43
60897;BME280;46749;32.932;-117.130;2023-04-23T09:47:51;100885.81;;;18.37;54.70
60897;BME280;46749;32.932;-117.130;2023-04-23T09:50:35;100890.22;;;18.36;54.35
60897;BME280;46749;32.932;-117.130;2023-04-23T09:53:03;100899.84;;;18.36;54.44
60897;BME280;46749;32.932;-117.130;2023-04-23T09:55:34;100898.94;;;18.35;54.56
60897;BME280;46749;32.932;-117.130;2023-04-23T09:58:13;100892.81;;;18.34;54.41
60897;BME280;46749;32.932;-117.130;2023-04-23T10:00:41;100867.38;;;18.33;54.58
60897;BME280;46749;32.932;-117.130;2023-04-23T10:03:08;100890.16;;;18.33;54.60
60897;BME280;46749;32.932;-117.130;2023-04-23T10:05:41;100888.41;;;18.32;54.69
60897;BME280;46749;32.932;-117.130;2023-04-23T10:08:08;100874.38;;;18.31;54.35
60897;BME280;46749;32.932;-117.130;2023-04-23T10:10:35;100877.00;;;18.30;54.46
60897;BME280;46749;32.932;-117.130;2023-04-23T10:13:03;100896.25;;;18.29;54.44
60897;BME280;46749;32.932;-117.130;2023-04-23T10:15:30;100886.66;;;18.29;54.65
60897;BME280;46749;32.932;-117.130;2023-04-23T10:17:57;100882.25;;;18.28;54.38
60897;BME280;46749;32.932;-117.130;2023-04-23T10:20:24;100896.25;;;18.29;54.70
60897;BME280;46749;32.932;-117.130;2023-04-23T10:22:52;100881.38;;;18.28;54.72
60897;BME280;46749;32.932;-117.130;2023-04-23T10:25:20;100884.00;;;18.28;54.72
60897;BME280;46749;32.932;-117.130;2023-04-23T10:27:48;100884.88;;;18.27;54.62
60897;BME280;46749;32.932;-117.130;2023-04-23T10:30:16;100869.97;;;18.26;54.58
60897;BME280;46749;32.932;-117.130;2023-04-23T10:32:43;100868.22;;;18.25;54.39
60897;BME280;46749;32.932;-117.130;2023-04-23T10:35:10;100878.72;;;18.25;54.56
60897;BME280;46749;32.932;-117.130;2023-04-23T10:37:37;100878.72;;;18.25;54.66
60897;BME280;46749;32.932;-117.130;2023-04-23T10:40:08;100874.34;;;18.24;54.71
60897;BME280;46749;32.932;-117.130;2023-04-23T10:42:42;100869.03;;;18.22;54.60
60897;BME280;46749;32.932;-117.130;2023-04-23T10:45:13;100872.59;;;18.23;54.46
60897;BME280;46749;32.932;-117.130;2023-04-23T10:47:44;100882.19;;;18.21;54.59
60897;BME280;46749;32.932;-117.130;2023-04-23T10:50:20;100883.94;;;18.22;54.41
60897;BME280;46749;32.932;-117.130;2023-04-23T10:52:47;100890.06;;;18.21;54.75
60897;BME280;46749;32.932;-117.130;2023-04-23T10:55:18;100897.97;;;18.21;54.83
60897;BME280;46749;32.932;-117.130;2023-04-23T10:58:00;100890.94;;;18.20;54.61
60897;BME280;46749;32.932;-117.130;2023-04-23T11:00:28;100878.69;;;18.19;54.63
60897;BME280;46749;32.932;-117.130;2023-04-23T11:02:54;100890.06;;;18.18;54.63
60897;BME280;46749;32.932;-117.130;2023-04-23T11:05:22;100877.78;;;18.17;54.72
60897;BME280;46749;32.932;-117.130;2023-04-23T11:08:06;100897.03;;;18.16;54.64
60897;BME280;46749;32.932;-117.130;2023-04-23T11:10:33;100897.03;;;18.16;54.66
60897;BME280;46749;32.932;-117.130;2023-04-23T11:13:27;100887.41;;;18.15;54.45
60897;BME280;46749;32.932;-117.130;2023-04-23T11:16:16;100885.66;;;18.14;54.55
60897;BME280;46749;32.932;-117.130;2023-04-23T11:19:03;100893.53;;;18.14;54.65
60897;BME280;46749;32.932;-117.130;2023-04-23T11:21:58;100889.16;;;18.13;54.60
60897;BME280;46749;32.932;-117.130;2023-04-23T11:24:36;100892.66;;;18.12;54.85
60897;BME280;46749;32.932;-117.130;2023-04-23T11:27:08;100884.75;;;18.12;54.40
60897;BME280;46749;32.932;-117.130;2023-04-23T11:29:36;100889.97;;;18.10;54.52
60897;BME280;46749;32.932;-117.130;2023-04-23T11:32:03;100890.84;;;18.09;54.62
60897;BME280;46749;32.932;-117.130;2023-04-23T11:34:36;100900.50;;;18.09;54.76
60897;BME280;46749;32.932;-117.130;2023-04-23T11:37:04;100902.25;;;18.08;54.54
60897;BME280;46749;32.932;-117.130;2023-04-23T11:39:31;100884.72;;;18.07;54.58
60897;BME280;46749;32.932;-117.130;2023-04-23T11:41:57;100888.22;;;18.08;54.71
60897;BME280;46749;32.932;-117.130;2023-04-23T11:44:27;100899.59;;;18.06;54.71
60897;BME280;46749;32.932;-117.130;2023-04-23T11:46:59;100904.00;;;18.08;54.60
60897;BME280;46749;32.932;-117.130;2023-04-23T11:49:26;100894.34;;;18.05;54.73
60897;BME280;46749;32.932;-117.130;2023-04-23T11:51:52;100886.47;;;18.05;54.55
60897;BME280;46749;32.932;-117.130;2023-04-23T11:54:24;100897.84;;;18.04;54.69
60897;BME280;46749;32.932;-117.130;2023-04-23T11:56:52;100891.72;;;18.05;54.58
60897;BME280;46749;32.932;-117.130;2023-04-23T11:59:19;100895.22;;;18.04;54.57
60897;BME280;46749;32.932;-117.130;2023-04-23T12:01:54;100894.31;;;18.03;54.47
60897;BME280;46749;32.932;-117.130;2023-04-23T12:04:22;100888.16;;;18.03;54.48
60897;BME280;46749;32.932;-117.130;2023-04-23T12:06:49;100890.78;;;18.01;54.53
60897;BME280;46749;32.932;-117.130;2023-04-23T12:09:19;100878.53;;;18.00;54.67
60897;BME280;46749;32.932;-117.130;2023-04-23T12:11:46;100887.28;;;17.99;54.62
60897;BME280;46749;32.932;-117.130;2023-04-23T12:14:13;100889.91;;;17.99;54.68
60897;BME280;46749;32.932;-117.130;2023-04-23T12:16:44;100888.16;;;17.98;54.72
60897;BME280;46749;32.932;-117.130;2023-04-23T12:19:16;100882.91;;;17.98;54.61
60897;BME280;46749;32.932;-117.130;2023-04-23T12:21:58;100888.13;;;17.97;54.61
60897;BME280;46749;32.932;-117.130;2023-04-23T12:24:26;100890.75;;;17.97;54.63